WetterOnline ( https://www.wetteronline.de )

Wetter aktuell Amorbach

Aktuelles Wetter: Michelstadt-Vielbrunn (455m)

6-stündlich | Neueste Meldungen
Ortszeit Temperatur Wetter
So, 26.05. 14:00 20.5° C wolkig
So, 26.05. 8:00 13.1° C wolkig
So, 26.05. 2:00 13.9° C wolkenlos
Sa, 25.05. 20:00 15.6° C wolkig
Sa, 25.05. 14:00 17.1° C bewölkt
Sa, 25.05. 8:00 14.0° C wolkenlos
Sa, 25.05. 2:00 11.8° C bewölkt
Fr, 24.05. 20:00 13.2° C leichter Regen
Ortszeit Temperatur Wetter
So, 26.05. 16:00 21.3° C leicht bewölkt
So, 26.05. 15:50 21.3° C wolkig
So, 26.05. 15:40 21.4° C bewölkt
So, 26.05. 15:30 21.7° C wolkig
So, 26.05. 15:20 21.7° C wolkig
So, 26.05. 15:10 21.3° C bewölkt
So, 26.05. 15:00 20.9° C wolkig
So, 26.05. 14:30 21.8° C wolkig
So, 26.05. 14:00 20.5° C wolkig
So, 26.05. 13:30 20.8° C wolkig
So, 26.05. 13:00 20.6° C wolkig
Ortszeit Relative Feuchte Sichtweite
So, 26.05. 14:00 46% 60 km
So, 26.05. 8:00 87% 50 km
So, 26.05. 2:00 75% 65 km
Sa, 25.05. 20:00 71% >70 km
Sa, 25.05. 14:00 63% 50 km
Sa, 25.05. 8:00 84% 28 km
Sa, 25.05. 2:00 96% 30 km
Fr, 24.05. 20:00 92% 26 km
Ortszeit Relative Feuchte Sichtweite
So, 26.05. 16:00 44% 60 km
So, 26.05. 15:50 44% -
So, 26.05. 15:40 41% -
So, 26.05. 15:30 41% 55 km
So, 26.05. 15:20 41% -
So, 26.05. 15:10 44% -
So, 26.05. 15:00 46% 50 km
So, 26.05. 14:30 50% 45 km
So, 26.05. 14:00 46% 60 km
So, 26.05. 13:30 51% 60 km
So, 26.05. 13:00 52% 45 km
Ortszeit Niederschlagsmenge Niederschlagsart
So, 26.05. 14:00 0.0 l/m2 in 6 Std. -
So, 26.05. 8:00 0.1 l/m2 in 12 Std. -
So, 26.05. 2:00 0.1 l/m2 in 6 Std. Regen
Sa, 25.05. 20:00 2 l/m2 in 12 Std. Regen
Sa, 25.05. 14:00 1 l/m2 in 6 Std. Regen
Sa, 25.05. 8:00 0.1 l/m2 in 12 Std. -
Sa, 25.05. 2:00 0.1 l/m2 in 6 Std. Regen
Fr, 24.05. 20:00 3 l/m2 in 12 Std. Regen
Ortszeit Niederschlagsmenge Niederschlagsart
So, 26.05. 16:00 0.0 l/m2 in 1 Std. -
So, 26.05. 15:50 keine Meldung -
So, 26.05. 15:40 keine Meldung -
So, 26.05. 15:30 0.0 l/m2 in 30 Min -
So, 26.05. 15:20 keine Meldung -
So, 26.05. 15:10 keine Meldung -
So, 26.05. 15:00 0.0 l/m2 in 1 Std. -
So, 26.05. 14:30 0.0 l/m2 in 30 Min -
So, 26.05. 14:00 0.0 l/m2 in 1 Std. -
So, 26.05. 13:30 0.0 l/m2 in 30 Min -
So, 26.05. 13:00 0.0 l/m2 in 1 Std. -
Ortszeit Stärke Spitze Richtung
km/h Bft. km/h Grad Sektor
So, 26.05. 14:00 14 3 29 180° S
So, 26.05. 8:00 9 2 15 140° SO
So, 26.05. 2:00 6 1 20 140° SO
Sa, 25.05. 20:00 7 2 22 320° NW
Sa, 25.05. 14:00 11 2 25 250° W
Sa, 25.05. 8:00 4 1 22 230° SW
Sa, 25.05. 2:00 13 3 20 230° SW
Fr, 24.05. 20:00 6 1 22 250° W
Ortszeit Stärke Spitze Richtung
km/h Bft. km/h Grad Sektor
So, 26.05. 16:00 14 3 29 190° S
So, 26.05. 15:50 14 3 - 190° S
So, 26.05. 15:40 15 3 - 210° SW
So, 26.05. 15:30 14 3 29 190° S
So, 26.05. 15:20 14 3 - 190° S
So, 26.05. 15:10 14 3 - 170° S
So, 26.05. 15:00 17 3 30 160° S
So, 26.05. 14:30 14 3 25 180° S
So, 26.05. 14:00 14 3 29 180° S
So, 26.05. 13:30 11 2 25 160° S
So, 26.05. 13:00 14 3 25 160° S
Ortszeit Untergrenze Bedeckung Gattung
total tief tief mittel hoch
So, 26.05. 14:00 1500 m 8/8 1/8 - - -
So, 26.05. 8:00 6600 m 8/8 8/8 - - -
So, 26.05. 2:00 - 0/8 0/8 - - -
Sa, 25.05. 20:00 1500 m 7/8 5/8 - - -
Sa, 25.05. 14:00 2100 m 7/8 7/8 - - -
Sa, 25.05. 8:00 - 0/8 0/8 - - -
Sa, 25.05. 2:00 6300 m 7/8 6/8 - - -
Fr, 24.05. 20:00 1800 m 7/8 7/8 - - -
Ortszeit Bedeckungsgrad in Achtel und Wolkenuntergrenze
So, 26.05. 16:00 1(1800m) 7(4200m) 7(4800m)
So, 26.05. 15:50 1(1800m) 7(4200m) 7(4800m)
So, 26.05. 15:40 7
So, 26.05. 15:30 3(1800m) 7(4500m)
So, 26.05. 15:20 3(1800m) 7(4500m)
So, 26.05. 15:10 7
So, 26.05. 15:00 5(1800m) 6(4200m) 6(5700m)
So, 26.05. 14:30 1(1800m) 6(4200m) 7(6600m)
So, 26.05. 14:00 1(1500m) 8(4500m) 8(5100m)
So, 26.05. 13:30 4(1800m) 7(4500m) 7(5700m)
So, 26.05. 13:00 2(1500m) 8(5700m) 8(6300m)
Ortszeit Luftdruck NN (hPa) Tendenz (hPa in 3 Std.)
So, 26.05. 14:00 1017 - 0,5
So, 26.05. 8:00 1018 + 0,5
So, 26.05. 2:00 1018 - 0,1
Sa, 25.05. 20:00 1017 + 0,3
Sa, 25.05. 14:00 1017 - 0,4
Sa, 25.05. 8:00 1017 + 0,2
Sa, 25.05. 2:00 1018 - 0,3
Fr, 24.05. 20:00 1017 + 0,2
Ortszeit Luftdruck NN (hPa) Tendenz (hPa in 3 Std.)
So, 26.05. 16:00 1016 - 0,8
So, 26.05. 15:50 1016 keine Meldung
So, 26.05. 15:40 1016 keine Meldung
So, 26.05. 15:30 1016 - 0,6
So, 26.05. 15:20 1016 keine Meldung
So, 26.05. 15:10 1016 keine Meldung
So, 26.05. 15:00 1016 - 0,5
So, 26.05. 14:30 1016 - 0,5
So, 26.05. 14:00 1017 - 0,5
So, 26.05. 13:30 1017 - 0,4
So, 26.05. 13:00 1017 - 0,5
Ortszeit Schneehöhe (cm)
So, 26.05. 14:00 0
So, 26.05. 8:00 0
So, 26.05. 2:00 0
Sa, 25.05. 20:00 0
Sa, 25.05. 14:00 0
Sa, 25.05. 8:00 0
Sa, 25.05. 2:00 0
Fr, 24.05. 20:00 0
Ortszeit Schneehöhe (cm)
So, 26.05. 16:00 0
So, 26.05. 15:50 0
So, 26.05. 15:40 -
So, 26.05. 15:30 0
So, 26.05. 15:20 0
So, 26.05. 15:10 -
So, 26.05. 15:00 0
So, 26.05. 14:30 0
So, 26.05. 14:00 0
So, 26.05. 13:30 0
So, 26.05. 13:00 0
Link zu dieser Seite / Seite empfehlen

Das Wetter in ...